sensor_id;sensor_type;location;lat;lon;timestamp;temperature;humidity
18721;DHT22;9489;50.948;3.114;2022-11-20T00:00:38;5.90;99.90
18721;DHT22;9489;50.948;3.114;2022-11-20T00:03:03;6.00;99.90
18721;DHT22;9489;50.948;3.114;2022-11-20T00:05:32;5.90;99.90
18721;DHT22;9489;50.948;3.114;2022-11-20T00:07:58;6.00;99.90
18721;DHT22;9489;50.948;3.114;2022-11-20T00:10:23;6.00;99.90
18721;DHT22;9489;50.948;3.114;2022-11-20T00:12:49;6.00;99.90
18721;DHT22;9489;50.948;3.114;2022-11-20T00:15:15;6.00;99.90
18721;DHT22;9489;50.948;3.114;2022-11-20T00:17:40;6.10;99.90
18721;DHT22;9489;50.948;3.114;2022-11-20T00:20:06;6.10;99.90
18721;DHT22;9489;50.948;3.114;2022-11-20T00:22:32;6.10;99.90
18721;DHT22;9489;50.948;3.114;2022-11-20T00:24:57;6.10;99.90
18721;DHT22;9489;50.948;3.114;2022-11-20T00:27:23;6.00;99.90
18721;DHT22;9489;50.948;3.114;2022-11-20T00:29:49;6.10;99.90
18721;DHT22;9489;50.948;3.114;2022-11-20T00:32:14;6.10;99.90
18721;DHT22;9489;50.948;3.114;2022-11-20T00:34:40;6.00;99.90
18721;DHT22;9489;50.948;3.114;2022-11-20T00:37:05;6.00;99.90
18721;DHT22;9489;50.948;3.114;2022-11-20T00:39:31;6.10;99.90
18721;DHT22;9489;50.948;3.114;2022-11-20T00:41:56;6.10;99.90
18721;DHT22;9489;50.948;3.114;2022-11-20T00:44:22;6.10;99.90
18721;DHT22;9489;50.948;3.114;2022-11-20T00:46:47;6.10;99.90
18721;DHT22;9489;50.948;3.114;2022-11-20T00:49:13;6.10;99.90
18721;DHT22;9489;50.948;3.114;2022-11-20T00:51:39;6.00;99.90
18721;DHT22;9489;50.948;3.114;2022-11-20T00:54:04;6.20;99.90
18721;DHT22;9489;50.948;3.114;2022-11-20T00:56:30;6.20;99.90
18721;DHT22;9489;50.948;3.114;2022-11-20T00:58:58;6.10;99.90
18721;DHT22;9489;50.948;3.114;2022-11-20T01:01:25;6.10;99.90
18721;DHT22;9489;50.948;3.114;2022-11-20T01:03:53;6.00;99.90
18721;DHT22;9489;50.948;3.114;2022-11-20T01:06:19;5.90;99.90
18721;DHT22;9489;50.948;3.114;2022-11-20T01:08:45;5.90;99.90
18721;DHT22;9489;50.948;3.114;2022-11-20T01:11:14;5.90;99.90
18721;DHT22;9489;50.948;3.114;2022-11-20T01:13:40;5.90;99.90
18721;DHT22;9489;50.948;3.114;2022-11-20T01:18:45;5.90;99.90
18721;DHT22;9489;50.948;3.114;2022-11-20T01:21:22;5.90;99.90
18721;DHT22;9489;50.948;3.114;2022-11-20T01:23:49;5.90;99.90
18721;DHT22;9489;50.948;3.114;2022-11-20T01:26:18;5.90;99.90
18721;DHT22;9489;50.948;3.114;2022-11-20T01:28:44;5.80;99.90
18721;DHT22;9489;50.948;3.114;2022-11-20T01:31:21;5.90;99.90
18721;DHT22;9489;50.948;3.114;2022-11-20T01:33:49;5.90;99.90
18721;DHT22;9489;50.948;3.114;2022-11-20T01:36:16;5.90;99.90
18721;DHT22;9489;50.948;3.114;2022-11-20T01:38:43;5.90;99.90
18721;DHT22;9489;50.948;3.114;2022-11-20T01:41:10;5.90;99.90
18721;DHT22;9489;50.948;3.114;2022-11-20T01:43:36;6.00;99.90
18721;DHT22;9489;50.948;3.114;2022-11-20T01:48:53;6.10;99.90
18721;DHT22;9489;50.948;3.114;2022-11-20T01:51:47;6.00;99.90
18721;DHT22;9489;50.948;3.114;2022-11-20T01:54:19;6.00;99.90
18721;DHT22;9489;50.948;3.114;2022-11-20T01:56:46;6.00;99.90
18721;DHT22;9489;50.948;3.114;2022-11-20T01:59:16;5.90;99.90
18721;DHT22;9489;50.948;3.114;2022-11-20T02:01:43;6.00;99.90
18721;DHT22;9489;50.948;3.114;2022-11-20T02:04:10;6.00;99.90
18721;DHT22;9489;50.948;3.114;2022-11-20T02:06:48;5.90;99.90
18721;DHT22;9489;50.948;3.114;2022-11-20T02:09:15;5.90;99.90
18721;DHT22;9489;50.948;3.114;2022-11-20T02:11:42;5.90;99.90
18721;DHT22;9489;50.948;3.114;2022-11-20T02:14:08;5.90;99.90
18721;DHT22;9489;50.948;3.114;2022-11-20T02:16:43;5.90;99.90
18721;DHT22;9489;50.948;3.114;2022-11-20T02:24:26;5.90;99.90
18721;DHT22;9489;50.948;3.114;2022-11-20T02:26:59;5.90;99.90
18721;DHT22;9489;50.948;3.114;2022-11-20T02:29:32;6.00;99.90
18721;DHT22;9489;50.948;3.114;2022-11-20T02:32:00;6.00;99.90
18721;DHT22;9489;50.948;3.114;2022-11-20T02:34:27;6.00;99.90
18721;DHT22;9489;50.948;3.114;2022-11-20T02:36:53;6.00;99.90
18721;DHT22;9489;50.948;3.114;2022-11-20T02:39:19;6.10;99.90
18721;DHT22;9489;50.948;3.114;2022-11-20T02:41:46;6.10;99.90
18721;DHT22;9489;50.948;3.114;2022-11-20T02:44:12;6.10;99.90
18721;DHT22;9489;50.948;3.114;2022-11-20T02:46:37;6.00;99.90
18721;DHT22;9489;50.948;3.114;2022-11-20T02:49:04;6.00;99.90
18721;DHT22;9489;50.948;3.114;2022-11-20T02:51:30;6.00;99.90
18721;DHT22;9489;50.948;3.114;2022-11-20T02:53:56;6.10;99.90
18721;DHT22;9489;50.948;3.114;2022-11-20T02:56:21;6.20;99.90
18721;DHT22;9489;50.948;3.114;2022-11-20T02:58:47;6.20;99.90
18721;DHT22;9489;50.948;3.114;2022-11-20T03:01:13;6.20;99.90
18721;DHT22;9489;50.948;3.114;2022-11-20T03:03:39;6.10;99.90
18721;DHT22;9489;50.948;3.114;2022-11-20T03:06:04;6.20;99.90
18721;DHT22;9489;50.948;3.114;2022-11-20T03:08:30;6.20;99.90
18721;DHT22;9489;50.948;3.114;2022-11-20T03:10:56;6.20;99.90
18721;DHT22;9489;50.948;3.114;2022-11-20T03:13:21;6.10;99.90
18721;DHT22;9489;50.948;3.114;2022-11-20T03:15:47;6.00;99.90
18721;DHT22;9489;50.948;3.114;2022-11-20T03:18:12;6.00;99.90
18721;DHT22;9489;50.948;3.114;2022-11-20T03:20:39;5.90;99.90
18721;DHT22;9489;50.948;3.114;2022-11-20T03:23:05;5.90;99.90
18721;DHT22;9489;50.948;3.114;2022-11-20T03:25:30;5.90;99.90
18721;DHT22;9489;50.948;3.114;2022-11-20T03:27:56;5.80;99.90
18721;DHT22;9489;50.948;3.114;2022-11-20T03:30:21;5.80;99.90
18721;DHT22;9489;50.948;3.114;2022-11-20T03:32:47;5.80;99.90
18721;DHT22;9489;50.948;3.114;2022-11-20T03:35:13;5.70;99.90
18721;DHT22;9489;50.948;3.114;2022-11-20T03:37:39;5.70;99.90
18721;DHT22;9489;50.948;3.114;2022-11-20T03:40:05;5.70;99.90
18721;DHT22;9489;50.948;3.114;2022-11-20T03:42:31;5.70;99.90
18721;DHT22;9489;50.948;3.114;2022-11-20T03:45:16;5.70;99.90
18721;DHT22;9489;50.948;3.114;2022-11-20T03:47:43;5.70;99.90
18721;DHT22;9489;50.948;3.114;2022-11-20T03:50:10;5.70;99.90
18721;DHT22;9489;50.948;3.114;2022-11-20T03:52:38;5.80;99.90
18721;DHT22;9489;50.948;3.114;2022-11-20T03:55:05;5.70;99.90
18721;DHT22;9489;50.948;3.114;2022-11-20T03:57:31;5.70;99.90
18721;DHT22;9489;50.948;3.114;2022-11-20T03:59:56;5.70;99.90
18721;DHT22;9489;50.948;3.114;2022-11-20T04:02:22;5.70;99.90
18721;DHT22;9489;50.948;3.114;2022-11-20T04:04:48;5.60;99.90
18721;DHT22;9489;50.948;3.114;2022-11-20T04:07:13;5.60;99.90
18721;DHT22;9489;50.948;3.114;2022-11-20T04:09:39;5.70;99.90
18721;DHT22;9489;50.948;3.114;2022-11-20T04:12:04;5.60;99.90
18721;DHT22;9489;50.948;3.114;2022-11-20T04:14:30;5.60;99.90
18721;DHT22;9489;50.948;3.114;2022-11-20T04:16:56;5.60;99.90
18721;DHT22;9489;50.948;3.114;2022-11-20T04:19:21;5.50;99.90
18721;DHT22;9489;50.948;3.114;2022-11-20T04:21:47;5.50;99.90
18721;DHT22;9489;50.948;3.114;2022-11-20T04:24:13;5.50;99.90
18721;DHT22;9489;50.948;3.114;2022-11-20T04:26:39;5.60;99.90
18721;DHT22;9489;50.948;3.114;2022-11-20T04:29:05;5.60;99.90
18721;DHT22;9489;50.948;3.114;2022-11-20T04:31:33;5.60;99.90
18721;DHT22;9489;50.948;3.114;2022-11-20T04:34:00;5.60;99.90
18721;DHT22;9489;50.948;3.114;2022-11-20T04:36:29;5.60;99.90
18721;DHT22;9489;50.948;3.114;2022-11-20T04:38:59;5.70;99.90
18721;DHT22;9489;50.948;3.114;2022-11-20T04:41:28;5.70;99.90
18721;DHT22;9489;50.948;3.114;2022-11-20T04:43:56;5.70;99.90
18721;DHT22;9489;50.948;3.114;2022-11-20T04:46:26;5.70;99.90
18721;DHT22;9489;50.948;3.114;2022-11-20T04:48:52;5.60;99.90
18721;DHT22;9489;50.948;3.114;2022-11-20T04:51:18;5.60;99.90
18721;DHT22;9489;50.948;3.114;2022-11-20T04:53:43;5.70;99.90
18721;DHT22;9489;50.948;3.114;2022-11-20T04:56:10;5.60;99.90
18721;DHT22;9489;50.948;3.114;2022-11-20T04:58:37;5.60;99.90
18721;DHT22;9489;50.948;3.114;2022-11-20T05:03:28;5.70;99.90
18721;DHT22;9489;50.948;3.114;2022-11-20T05:05:54;5.70;99.90
18721;DHT22;9489;50.948;3.114;2022-11-20T05:08:19;5.60;99.90
18721;DHT22;9489;50.948;3.114;2022-11-20T05:10:45;5.70;99.90
18721;DHT22;9489;50.948;3.114;2022-11-20T05:13:11;5.70;99.90
18721;DHT22;9489;50.948;3.114;2022-11-20T05:15:36;5.70;99.90
18721;DHT22;9489;50.948;3.114;2022-11-20T05:18:02;5.80;99.90
18721;DHT22;9489;50.948;3.114;2022-11-20T05:20:28;5.80;99.90
18721;DHT22;9489;50.948;3.114;2022-11-20T05:22:56;5.70;99.90
18721;DHT22;9489;50.948;3.114;2022-11-20T05:25:23;5.80;99.90
18721;DHT22;9489;50.948;3.114;2022-11-20T05:27:48;5.80;99.90
18721;DHT22;9489;50.948;3.114;2022-11-20T05:30:14;5.80;99.90
18721;DHT22;9489;50.948;3.114;2022-11-20T05:32:40;5.80;99.90
18721;DHT22;9489;50.948;3.114;2022-11-20T05:35:06;5.80;99.90
18721;DHT22;9489;50.948;3.114;2022-11-20T05:37:32;5.80;99.90
18721;DHT22;9489;50.948;3.114;2022-11-20T05:39:57;5.80;99.90
18721;DHT22;9489;50.948;3.114;2022-11-20T05:42:23;5.80;99.90
18721;DHT22;9489;50.948;3.114;2022-11-20T05:44:59;5.80;99.90
18721;DHT22;9489;50.948;3.114;2022-11-20T05:47:26;5.80;99.90
18721;DHT22;9489;50.948;3.114;2022-11-20T05:49:52;5.90;99.90
18721;DHT22;9489;50.948;3.114;2022-11-20T05:52:18;5.90;99.90
18721;DHT22;9489;50.948;3.114;2022-11-20T05:54:43;5.90;99.90
18721;DHT22;9489;50.948;3.114;2022-11-20T05:57:09;5.90;99.90
18721;DHT22;9489;50.948;3.114;2022-11-20T05:59:34;5.90;99.90
18721;DHT22;9489;50.948;3.114;2022-11-20T06:02:00;6.00;99.90
18721;DHT22;9489;50.948;3.114;2022-11-20T06:04:26;6.00;99.90
18721;DHT22;9489;50.948;3.114;2022-11-20T06:06:51;6.00;99.90
18721;DHT22;9489;50.948;3.114;2022-11-20T06:09:17;6.00;99.90
18721;DHT22;9489;50.948;3.114;2022-11-20T06:11:42;6.00;99.90
18721;DHT22;9489;50.948;3.114;2022-11-20T06:14:08;6.00;99.90
18721;DHT22;9489;50.948;3.114;2022-11-20T06:16:33;6.00;99.90
18721;DHT22;9489;50.948;3.114;2022-11-20T06:18:59;6.00;99.90
18721;DHT22;9489;50.948;3.114;2022-11-20T06:21:25;6.10;99.90
18721;DHT22;9489;50.948;3.114;2022-11-20T06:23:52;6.10;99.90
18721;DHT22;9489;50.948;3.114;2022-11-20T06:26:20;6.10;99.90
18721;DHT22;9489;50.948;3.114;2022-11-20T06:28:46;6.10;99.90
18721;DHT22;9489;50.948;3.114;2022-11-20T06:31:14;6.20;99.90
18721;DHT22;9489;50.948;3.114;2022-11-20T06:33:40;6.20;99.90
18721;DHT22;9489;50.948;3.114;2022-11-20T06:36:06;6.20;99.90
18721;DHT22;9489;50.948;3.114;2022-11-20T06:38:32;6.20;99.90
18721;DHT22;9489;50.948;3.114;2022-11-20T06:40:58;6.20;99.90
18721;DHT22;9489;50.948;3.114;2022-11-20T06:43:24;6.20;99.90
18721;DHT22;9489;50.948;3.114;2022-11-20T06:45:53;6.20;99.90
18721;DHT22;9489;50.948;3.114;2022-11-20T06:48:19;6.20;99.90
18721;DHT22;9489;50.948;3.114;2022-11-20T06:50:51;6.20;99.90
18721;DHT22;9489;50.948;3.114;2022-11-20T06:53:18;6.20;99.90
18721;DHT22;9489;50.948;3.114;2022-11-20T06:55:46;6.20;99.90
18721;DHT22;9489;50.948;3.114;2022-11-20T06:58:13;6.20;99.90
18721;DHT22;9489;50.948;3.114;2022-11-20T07:00:39;6.20;99.90
18721;DHT22;9489;50.948;3.114;2022-11-20T07:03:08;6.20;99.90
18721;DHT22;9489;50.948;3.114;2022-11-20T07:05:39;6.20;99.90
18721;DHT22;9489;50.948;3.114;2022-11-20T07:08:06;6.20;99.90
18721;DHT22;9489;50.948;3.114;2022-11-20T07:10:32;6.20;99.90
18721;DHT22;9489;50.948;3.114;2022-11-20T07:12:58;6.20;99.90
18721;DHT22;9489;50.948;3.114;2022-11-20T07:15:24;6.20;99.90
18721;DHT22;9489;50.948;3.114;2022-11-20T07:17:52;6.30;99.90
18721;DHT22;9489;50.948;3.114;2022-11-20T07:20:17;6.20;99.90
18721;DHT22;9489;50.948;3.114;2022-11-20T07:22:43;6.30;99.90
18721;DHT22;9489;50.948;3.114;2022-11-20T07:25:09;6.30;99.90
18721;DHT22;9489;50.948;3.114;2022-11-20T07:27:35;6.30;99.90
18721;DHT22;9489;50.948;3.114;2022-11-20T07:30:02;6.30;99.90
18721;DHT22;9489;50.948;3.114;2022-11-20T07:32:28;6.30;99.90
18721;DHT22;9489;50.948;3.114;2022-11-20T07:34:54;6.30;99.90
18721;DHT22;9489;50.948;3.114;2022-11-20T07:37:19;6.40;99.90
18721;DHT22;9489;50.948;3.114;2022-11-20T07:39:45;6.40;99.90
18721;DHT22;9489;50.948;3.114;2022-11-20T07:42:10;6.40;99.90
18721;DHT22;9489;50.948;3.114;2022-11-20T07:44:38;6.40;99.90
18721;DHT22;9489;50.948;3.114;2022-11-20T07:47:04;6.40;99.90
18721;DHT22;9489;50.948;3.114;2022-11-20T07:49:29;6.40;99.90
18721;DHT22;9489;50.948;3.114;2022-11-20T07:51:55;6.40;99.90
18721;DHT22;9489;50.948;3.114;2022-11-20T07:54:21;6.40;99.90
18721;DHT22;9489;50.948;3.114;2022-11-20T07:56:48;6.40;99.90
18721;DHT22;9489;50.948;3.114;2022-11-20T07:59:14;6.40;99.90
18721;DHT22;9489;50.948;3.114;2022-11-20T08:01:41;6.40;99.90
18721;DHT22;9489;50.948;3.114;2022-11-20T08:04:07;6.40;99.90
18721;DHT22;9489;50.948;3.114;2022-11-20T08:06:33;6.40;99.90
18721;DHT22;9489;50.948;3.114;2022-11-20T08:08:58;6.50;99.90
18721;DHT22;9489;50.948;3.114;2022-11-20T08:11:24;6.50;99.90
18721;DHT22;9489;50.948;3.114;2022-11-20T08:14:08;6.50;99.90
18721;DHT22;9489;50.948;3.114;2022-11-20T08:16:40;6.50;99.90
18721;DHT22;9489;50.948;3.114;2022-11-20T08:19:07;6.50;99.90
18721;DHT22;9489;50.948;3.114;2022-11-20T08:21:33;6.60;99.90
18721;DHT22;9489;50.948;3.114;2022-11-20T08:23:58;6.60;99.90
18721;DHT22;9489;50.948;3.114;2022-11-20T08:26:25;6.60;99.90
18721;DHT22;9489;50.948;3.114;2022-11-20T08:28:55;6.60;99.90
18721;DHT22;9489;50.948;3.114;2022-11-20T08:31:22;6.70;99.90
18721;DHT22;9489;50.948;3.114;2022-11-20T08:33:48;6.70;99.90
18721;DHT22;9489;50.948;3.114;2022-11-20T08:36:13;6.80;99.90
18721;DHT22;9489;50.948;3.114;2022-11-20T08:38:39;6.80;99.90
18721;DHT22;9489;50.948;3.114;2022-11-20T08:41:05;6.80;99.90
18721;DHT22;9489;50.948;3.114;2022-11-20T08:44:03;6.80;99.90
18721;DHT22;9489;50.948;3.114;2022-11-20T08:46:33;6.90;99.90
18721;DHT22;9489;50.948;3.114;2022-11-20T08:49:00;6.90;99.90
18721;DHT22;9489;50.948;3.114;2022-11-20T08:51:26;7.00;99.90
18721;DHT22;9489;50.948;3.114;2022-11-20T08:53:51;7.00;99.90
18721;DHT22;9489;50.948;3.114;2022-11-20T08:56:17;7.10;99.90
18721;DHT22;9489;50.948;3.114;2022-11-20T08:58:43;7.10;99.90
18721;DHT22;9489;50.948;3.114;2022-11-20T09:01:08;7.20;99.90
18721;DHT22;9489;50.948;3.114;2022-11-20T09:03:34;7.30;99.90
18721;DHT22;9489;50.948;3.114;2022-11-20T09:06:02;7.30;99.90
18721;DHT22;9489;50.948;3.114;2022-11-20T09:08:28;7.40;99.90
18721;DHT22;9489;50.948;3.114;2022-11-20T09:10:55;7.40;99.90
18721;DHT22;9489;50.948;3.114;2022-11-20T09:13:22;7.50;99.90
18721;DHT22;9489;50.948;3.114;2022-11-20T09:15:57;7.60;99.90
18721;DHT22;9489;50.948;3.114;2022-11-20T09:18:23;7.70;99.90
18721;DHT22;9489;50.948;3.114;2022-11-20T09:20:49;7.80;99.90
18721;DHT22;9489;50.948;3.114;2022-11-20T09:23:15;7.90;99.90
18721;DHT22;9489;50.948;3.114;2022-11-20T09:25:41;8.00;99.90
18721;DHT22;9489;50.948;3.114;2022-11-20T09:28:07;8.00;99.90
18721;DHT22;9489;50.948;3.114;2022-11-20T09:30:32;8.00;99.90
18721;DHT22;9489;50.948;3.114;2022-11-20T09:32:58;8.10;99.90
18721;DHT22;9489;50.948;3.114;2022-11-20T09:35:24;8.10;99.90
18721;DHT22;9489;50.948;3.114;2022-11-20T09:37:49;8.30;99.90
18721;DHT22;9489;50.948;3.114;2022-11-20T09:40:26;8.30;99.90
18721;DHT22;9489;50.948;3.114;2022-11-20T09:48:50;8.50;99.90
18721;DHT22;9489;50.948;3.114;2022-11-20T09:51:30;8.60;99.90
18721;DHT22;9489;50.948;3.114;2022-11-20T09:56:42;8.70;99.90
18721;DHT22;9489;50.948;3.114;2022-11-20T09:59:21;8.70;99.90
18721;DHT22;9489;50.948;3.114;2022-11-20T10:01:49;8.70;99.90
18721;DHT22;9489;50.948;3.114;2022-11-20T10:04:19;8.80;99.90
18721;DHT22;9489;50.948;3.114;2022-11-20T10:09:38;8.90;99.90
18721;DHT22;9489;50.948;3.114;2022-11-20T10:14:55;9.00;99.90
18721;DHT22;9489;50.948;3.114;2022-11-20T10:25:25;8.70;99.90
18721;DHT22;9489;50.948;3.114;2022-11-20T10:30:27;8.70;99.90
18721;DHT22;9489;50.948;3.114;2022-11-20T10:35:55;8.60;99.90
18721;DHT22;9489;50.948;3.114;2022-11-20T10:38:34;8.60;99.90
18721;DHT22;9489;50.948;3.114;2022-11-20T10:41:02;8.50;99.90
18721;DHT22;9489;50.948;3.114;2022-11-20T10:43:48;8.50;99.90
18721;DHT22;9489;50.948;3.114;2022-11-20T10:46:19;8.40;99.90
18721;DHT22;9489;50.948;3.114;2022-11-20T10:48:46;8.40;99.90
18721;DHT22;9489;50.948;3.114;2022-11-20T10:51:33;8.30;99.90
18721;DHT22;9489;50.948;3.114;2022-11-20T10:54:12;8.30;99.90
18721;DHT22;9489;50.948;3.114;2022-11-20T10:56:53;8.30;99.90
18721;DHT22;9489;50.948;3.114;2022-11-20T11:00:09;8.20;99.90
18721;DHT22;9489;50.948;3.114;2022-11-20T11:02:48;8.20;99.90
18721;DHT22;9489;50.948;3.114;2022-11-20T11:05:32;8.20;99.90
18721;DHT22;9489;50.948;3.114;2022-11-20T11:07:59;8.20;99.90
18721;DHT22;9489;50.948;3.114;2022-11-20T11:10:41;8.20;99.90
18721;DHT22;9489;50.948;3.114;2022-11-20T11:13:07;8.20;99.90
18721;DHT22;9489;50.948;3.114;2022-11-20T11:15:44;8.20;99.90
18721;DHT22;9489;50.948;3.114;2022-11-20T11:18:11;8.20;99.90
18721;DHT22;9489;50.948;3.114;2022-11-20T11:20:37;8.10;99.90
18721;DHT22;9489;50.948;3.114;2022-11-20T11:23:03;8.20;99.90
18721;DHT22;9489;50.948;3.114;2022-11-20T11:27:58;8.10;99.90
18721;DHT22;9489;50.948;3.114;2022-11-20T11:30:25;8.10;99.90
18721;DHT22;9489;50.948;3.114;2022-11-20T11:33:06;8.10;99.90
18721;DHT22;9489;50.948;3.114;2022-11-20T11:35:33;8.10;99.90
18721;DHT22;9489;50.948;3.114;2022-11-20T11:38:10;8.00;99.90
18721;DHT22;9489;50.948;3.114;2022-11-20T11:40:39;8.00;99.90
18721;DHT22;9489;50.948;3.114;2022-11-20T11:43:15;8.00;99.90
18721;DHT22;9489;50.948;3.114;2022-11-20T11:46:02;8.00;99.90
18721;DHT22;9489;50.948;3.114;2022-11-20T11:48:28;8.00;99.90
18721;DHT22;9489;50.948;3.114;2022-11-20T11:50:53;8.10;99.90
18721;DHT22;9489;50.948;3.114;2022-11-20T11:53:23;8.10;99.90
18721;DHT22;9489;50.948;3.114;2022-11-20T11:55:58;8.10;99.90
18721;DHT22;9489;50.948;3.114;2022-11-20T11:58:47;8.10;99.90
18721;DHT22;9489;50.948;3.114;2022-11-20T12:01:37;8.00;99.90
18721;DHT22;9489;50.948;3.114;2022-11-20T12:04:19;8.10;99.90
18721;DHT22;9489;50.948;3.114;2022-11-20T12:06:53;8.10;99.90
18721;DHT22;9489;50.948;3.114;2022-11-20T12:09:24;8.10;99.90
18721;DHT22;9489;50.948;3.114;2022-11-20T12:12:02;8.20;99.90
18721;DHT22;9489;50.948;3.114;2022-11-20T12:14:38;8.20;99.90
18721;DHT22;9489;50.948;3.114;2022-11-20T12:17:07;8.30;99.90
18721;DHT22;9489;50.948;3.114;2022-11-20T12:19:34;8.30;99.90
18721;DHT22;9489;50.948;3.114;2022-11-20T12:22:39;8.30;99.90
18721;DHT22;9489;50.948;3.114;2022-11-20T12:25:16;8.40;99.90
18721;DHT22;9489;50.948;3.114;2022-11-20T12:30:27;8.50;99.90
18721;DHT22;9489;50.948;3.114;2022-11-20T12:36:17;8.50;99.90
18721;DHT22;9489;50.948;3.114;2022-11-20T12:41:26;8.50;99.90
18721;DHT22;9489;50.948;3.114;2022-11-20T12:53:04;8.50;99.90
18721;DHT22;9489;50.948;3.114;2022-11-20T12:55:36;8.50;99.90
18721;DHT22;9489;50.948;3.114;2022-11-20T12:58:13;8.60;99.90
18721;DHT22;9489;50.948;3.114;2022-11-20T13:00:54;8.60;99.90
18721;DHT22;9489;50.948;3.114;2022-11-20T13:08:34;8.70;99.90
18721;DHT22;9489;50.948;3.114;2022-11-20T13:14:23;8.70;99.90
18721;DHT22;9489;50.948;3.114;2022-11-20T13:20:14;8.90;99.90
18721;DHT22;9489;50.948;3.114;2022-11-20T13:22:45;9.00;99.90
18721;DHT22;9489;50.948;3.114;2022-11-20T13:25:31;9.10;99.90
18721;DHT22;9489;50.948;3.114;2022-11-20T13:28:44;9.40;99.90
18721;DHT22;9489;50.948;3.114;2022-11-20T13:30:54;9.60;99.90
18721;DHT22;9489;50.948;3.114;2022-11-20T13:33:34;9.80;99.90
18721;DHT22;9489;50.948;3.114;2022-11-20T13:36:04;10.00;99.90
18721;DHT22;9489;50.948;3.114;2022-11-20T13:38:47;10.20;99.90
18721;DHT22;9489;50.948;3.114;2022-11-20T13:41:32;10.30;99.90
18721;DHT22;9489;50.948;3.114;2022-11-20T13:44:13;10.40;99.90
18721;DHT22;9489;50.948;3.114;2022-11-20T13:46:46;10.60;99.90
18721;DHT22;9489;50.948;3.114;2022-11-20T13:49:37;10.60;99.90
18721;DHT22;9489;50.948;3.114;2022-11-20T14:00:55;11.00;99.90
18721;DHT22;9489;50.948;3.114;2022-11-20T14:03:24;11.00;99.90
18721;DHT22;9489;50.948;3.114;2022-11-20T14:06:00;11.00;99.90
18721;DHT22;9489;50.948;3.114;2022-11-20T14:11:05;10.90;99.90
18721;DHT22;9489;50.948;3.114;2022-11-20T14:13:32;11.00;99.90
18721;DHT22;9489;50.948;3.114;2022-11-20T14:15:58;11.00;99.90
18721;DHT22;9489;50.948;3.114;2022-11-20T14:18:26;11.00;99.90
18721;DHT22;9489;50.948;3.114;2022-11-20T14:20:52;11.00;99.90
18721;DHT22;9489;50.948;3.114;2022-11-20T14:23:26;11.00;99.90
18721;DHT22;9489;50.948;3.114;2022-11-20T14:25:55;11.00;99.90
18721;DHT22;9489;50.948;3.114;2022-11-20T14:28:28;11.00;99.90
18721;DHT22;9489;50.948;3.114;2022-11-20T14:30:54;10.90;99.90
18721;DHT22;9489;50.948;3.114;2022-11-20T14:33:20;10.80;99.90
18721;DHT22;9489;50.948;3.114;2022-11-20T14:35:52;10.70;99.90
18721;DHT22;9489;50.948;3.114;2022-11-20T14:38:23;10.70;99.90
18721;DHT22;9489;50.948;3.114;2022-11-20T14:40:50;10.70;99.90
18721;DHT22;9489;50.948;3.114;2022-11-20T14:43:27;10.70;99.90
18721;DHT22;9489;50.948;3.114;2022-11-20T14:46:03;10.70;99.90
18721;DHT22;9489;50.948;3.114;2022-11-20T14:48:32;10.70;99.90
18721;DHT22;9489;50.948;3.114;2022-11-20T14:50:59;10.80;99.90
18721;DHT22;9489;50.948;3.114;2022-11-20T14:53:25;10.80;99.90
18721;DHT22;9489;50.948;3.114;2022-11-20T14:55:59;10.90;99.90
18721;DHT22;9489;50.948;3.114;2022-11-20T14:58:32;10.80;99.90
18721;DHT22;9489;50.948;3.114;2022-11-20T15:01:06;10.80;99.90
18721;DHT22;9489;50.948;3.114;2022-11-20T15:03:38;10.80;99.90
18721;DHT22;9489;50.948;3.114;2022-11-20T15:06:11;10.80;99.90
18721;DHT22;9489;50.948;3.114;2022-11-20T15:08:37;10.80;99.90
18721;DHT22;9489;50.948;3.114;2022-11-20T15:11:03;10.90;99.90
18721;DHT22;9489;50.948;3.114;2022-11-20T15:13:41;10.90;99.90
18721;DHT22;9489;50.948;3.114;2022-11-20T15:16:18;11.00;99.90
18721;DHT22;9489;50.948;3.114;2022-11-20T15:18:44;11.10;99.90
18721;DHT22;9489;50.948;3.114;2022-11-20T15:21:12;11.10;99.90
18721;DHT22;9489;50.948;3.114;2022-11-20T15:23:38;11.10;99.90
18721;DHT22;9489;50.948;3.114;2022-11-20T15:26:07;11.00;99.90
18721;DHT22;9489;50.948;3.114;2022-11-20T15:28:37;10.90;99.90
18721;DHT22;9489;50.948;3.114;2022-11-20T15:31:05;10.80;99.90
18721;DHT22;9489;50.948;3.114;2022-11-20T15:33:32;10.60;99.90
18721;DHT22;9489;50.948;3.114;2022-11-20T15:35:57;10.50;99.90
18721;DHT22;9489;50.948;3.114;2022-11-20T15:38:23;10.40;99.90
18721;DHT22;9489;50.948;3.114;2022-11-20T15:40:49;10.30;99.90
18721;DHT22;9489;50.948;3.114;2022-11-20T15:43:15;10.20;99.90
18721;DHT22;9489;50.948;3.114;2022-11-20T15:45:50;10.20;99.90
18721;DHT22;9489;50.948;3.114;2022-11-20T15:48:31;10.10;99.90
18721;DHT22;9489;50.948;3.114;2022-11-20T15:53:41;10.10;99.90
18721;DHT22;9489;50.948;3.114;2022-11-20T15:56:12;10.00;99.90
18721;DHT22;9489;50.948;3.114;2022-11-20T15:58:38;10.00;99.90
18721;DHT22;9489;50.948;3.114;2022-11-20T16:01:04;9.90;99.90
18721;DHT22;9489;50.948;3.114;2022-11-20T16:03:30;9.90;99.90
18721;DHT22;9489;50.948;3.114;2022-11-20T16:05:56;9.90;99.90
18721;DHT22;9489;50.948;3.114;2022-11-20T16:08:21;9.80;99.90
18721;DHT22;9489;50.948;3.114;2022-11-20T16:10:47;9.80;99.90
18721;DHT22;9489;50.948;3.114;2022-11-20T16:13:14;9.70;99.90
18721;DHT22;9489;50.948;3.114;2022-11-20T16:16:01;9.70;99.90
18721;DHT22;9489;50.948;3.114;2022-11-20T16:18:27;9.70;99.90
18721;DHT22;9489;50.948;3.114;2022-11-20T16:20:54;9.60;99.90
18721;DHT22;9489;50.948;3.114;2022-11-20T16:23:20;9.60;99.90
18721;DHT22;9489;50.948;3.114;2022-11-20T16:25:46;9.50;99.90
18721;DHT22;9489;50.948;3.114;2022-11-20T16:28:12;9.40;99.90
18721;DHT22;9489;50.948;3.114;2022-11-20T16:30:38;9.40;99.90
18721;DHT22;9489;50.948;3.114;2022-11-20T16:33:09;9.30;99.90
18721;DHT22;9489;50.948;3.114;2022-11-20T16:35:35;9.30;99.90
18721;DHT22;9489;50.948;3.114;2022-11-20T16:38:01;9.20;99.90
18721;DHT22;9489;50.948;3.114;2022-11-20T16:40:26;9.20;99.90
18721;DHT22;9489;50.948;3.114;2022-11-20T16:42:52;9.20;99.90
18721;DHT22;9489;50.948;3.114;2022-11-20T16:45:18;9.10;99.90
18721;DHT22;9489;50.948;3.114;2022-11-20T16:47:44;9.10;99.90
18721;DHT22;9489;50.948;3.114;2022-11-20T16:50:10;9.10;99.90
18721;DHT22;9489;50.948;3.114;2022-11-20T16:52:35;9.10;99.90
18721;DHT22;9489;50.948;3.114;2022-11-20T16:55:01;9.10;99.90
18721;DHT22;9489;50.948;3.114;2022-11-20T16:57:28;9.10;99.90
18721;DHT22;9489;50.948;3.114;2022-11-20T16:59:54;9.00;99.90
18721;DHT22;9489;50.948;3.114;2022-11-20T17:02:20;9.00;99.90
18721;DHT22;9489;50.948;3.114;2022-11-20T17:04:45;9.00;99.90
18721;DHT22;9489;50.948;3.114;2022-11-20T17:07:11;9.00;99.90
18721;DHT22;9489;50.948;3.114;2022-11-20T17:09:37;8.90;99.90
18721;DHT22;9489;50.948;3.114;2022-11-20T17:12:03;8.90;99.90
18721;DHT22;9489;50.948;3.114;2022-11-20T17:14:29;8.90;99.90
18721;DHT22;9489;50.948;3.114;2022-11-20T17:16:54;8.90;99.90
18721;DHT22;9489;50.948;3.114;2022-11-20T17:19:20;8.90;99.90
18721;DHT22;9489;50.948;3.114;2022-11-20T17:21:46;8.90;99.90
18721;DHT22;9489;50.948;3.114;2022-11-20T17:24:12;9.00;99.90
18721;DHT22;9489;50.948;3.114;2022-11-20T17:26:41;9.00;99.90
18721;DHT22;9489;50.948;3.114;2022-11-20T17:29:09;9.00;99.90
18721;DHT22;9489;50.948;3.114;2022-11-20T17:31:36;9.10;99.90
18721;DHT22;9489;50.948;3.114;2022-11-20T17:34:07;9.10;99.90
18721;DHT22;9489;50.948;3.114;2022-11-20T17:36:35;9.10;99.90